Time;durP1;ratioP1;P1;durP2;ratioP2;P2;SDS_P1;SDS_P2;PMS_P1;PMS_P2;Temp;Humidity;BMP_temperature;BMP_pressure;BME280_temperature;BME280_humidity;BME280_pressure;Samples;Min_cycle;Max_cycle;Signal;HPM_P1;HPM_P2
2020/12/06 00:01:35;;;;;;;48.03;24.90;;;7.90;52.40;;;;;;5078747;28;20474;-88
2020/12/06 00:04:01;;;;;;;40.73;24.53;;;8.10;52.90;;;;;;5079982;28;20480;-88
2020/12/06 00:06:30;;;;;;;41.13;23.87;;;8.30;51.90;;;;;;5080380;28;20429;-88
2020/12/06 00:08:57;;;;;;;33.83;19.37;;;8.40;52.00;;;;;;5064468;28;20448;-89
2020/12/06 00:11:24;;;;;;;44.17;23.40;;;8.50;53.00;;;;;;5059190;28;20834;-88
2020/12/06 00:13:51;;;;;;;34.93;19.80;;;8.60;50.30;;;;;;5059158;28;20443;-88
2020/12/06 00:16:19;;;;;;;40.90;23.73;;;8.70;53.20;;;;;;5059621;28;20478;-89
2020/12/06 00:18:47;;;;;;;37.90;21.27;;;9.20;52.60;;;;;;5059381;28;20436;-88
2020/12/06 00:21:14;;;;;;;49.83;26.67;;;10.00;50.70;;;;;;5059161;28;20996;-89
2020/12/06 00:23:41;;;;;;;46.40;26.30;;;9.90;49.40;;;;;;5058852;28;20533;-89
2020/12/06 00:26:08;;;;;;;49.33;27.40;;;10.30;47.30;;;;;;5058992;28;20440;-88
2020/12/06 00:28:35;;;;;;;42.60;25.40;;;10.10;47.50;;;;;;5058438;28;20457;-88
2020/12/06 00:31:02;;;;;;;41.20;24.37;;;9.70;48.70;;;;;;5059169;28;20464;-89
2020/12/06 00:33:29;;;;;;;46.43;27.77;;;9.50;49.00;;;;;;5059802;28;20440;-88
2020/12/06 00:35:56;;;;;;;52.67;29.47;;;8.70;49.50;;;;;;5059849;28;20518;-89
2020/12/06 00:38:22;;;;;;;46.47;26.00;;;7.90;51.90;;;;;;5059009;28;20509;-89
2020/12/06 00:40:49;;;;;;;47.87;25.93;;;7.90;52.30;;;;;;5058776;28;20538;-89
2020/12/06 00:43:16;;;;;;;51.40;27.57;;;7.50;53.70;;;;;;5058953;28;20476;-89
2020/12/06 00:45:43;;;;;;;46.03;26.37;;;7.60;53.40;;;;;;5076893;28;20436;-89
2020/12/06 00:48:09;;;;;;;53.77;28.83;;;7.20;54.00;;;;;;5068833;28;20448;-88
2020/12/06 00:50:36;;;;;;;48.10;27.00;;;6.80;55.20;;;;;;5058558;28;20476;-88
2020/12/06 00:53:02;;;;;;;47.30;26.13;;;6.50;56.50;;;;;;5058396;28;20449;-89
2020/12/06 00:55:29;;;;;;;51.63;28.30;;;6.50;57.30;;;;;;5057789;28;20952;-88
2020/12/06 00:57:55;;;;;;;50.80;27.83;;;6.90;55.90;;;;;;5059007;28;20498;-88
2020/12/06 01:00:23;;;;;;;61.10;32.30;;;6.60;56.20;;;;;;5060688;28;20471;-89
2020/12/06 01:02:49;;;;;;;60.33;30.77;;;6.90;56.40;;;;;;5058374;28;20484;-89
2020/12/06 01:05:16;;;;;;;55.40;28.93;;;7.20;55.30;;;;;;5058000;28;20448;-89
2020/12/06 01:07:43;;;;;;;61.90;33.27;;;7.20;54.40;;;;;;5057916;28;20945;-89
2020/12/06 01:10:11;;;;;;;57.50;30.87;;;6.80;56.60;;;;;;5057616;28;20463;-89
2020/12/06 01:12:38;;;;;;;54.80;28.60;;;7.00;56.00;;;;;;5057460;28;20444;-89
2020/12/06 01:15:06;;;;;;;54.93;29.70;;;6.90;56.40;;;;;;5057036;28;20449;-89
2020/12/06 01:17:34;;;;;;;50.93;28.50;;;7.20;55.50;;;;;;5057599;28;20496;-89
2020/12/06 01:20:00;;;;;;;48.67;24.63;;;7.30;55.30;;;;;;5057534;28;20468;-89
2020/12/06 01:22:27;;;;;;;45.07;26.20;;;7.10;56.20;;;;;;5056661;28;20476;-89
2020/12/06 01:24:53;;;;;;;33.47;19.57;;;7.60;56.80;;;;;;5064447;28;20441;-89
2020/12/06 01:27:20;;;;;;;50.53;28.57;;;8.10;55.60;;;;;;5077809;28;20436;-88
2020/12/06 01:29:46;;;;;;;54.70;28.47;;;8.30;52.50;;;;;;5056950;28;20999;-89
2020/12/06 01:32:13;;;;;;;52.07;26.50;;;8.70;54.00;;;;;;5056922;28;20607;-89
2020/12/06 01:34:40;;;;;;;47.00;26.20;;;9.10;52.10;;;;;;5057096;28;20447;-89
2020/12/06 01:37:07;;;;;;;41.27;23.63;;;9.60;52.70;;;;;;5056886;28;20498;-89
2020/12/06 01:39:33;;;;;;;46.00;26.03;;;10.20;50.60;;;;;;5057100;28;20444;-89
2020/12/06 01:42:00;;;;;;;45.97;24.50;;;10.40;48.60;;;;;;5056560;28;20464;-89
2020/12/06 01:44:27;;;;;;;40.00;22.03;;;10.30;47.30;;;;;;5056542;28;20452;-89
2020/12/06 01:46:55;;;;;;;37.97;21.97;;;10.40;48.10;;;;;;5056720;28;20436;-89
2020/12/06 01:49:22;;;;;;;36.43;21.23;;;10.60;49.00;;;;;;5056335;28;20506;-89
2020/12/06 01:51:55;;;;;;;31.87;19.50;;;10.90;48.70;;;;;;5056401;28;20464;-89
2020/12/06 01:54:22;;;;;;;25.37;16.13;;;11.30;47.90;;;;;;5056696;28;20416;-89
2020/12/06 01:56:49;;;;;;;37.03;21.50;;;11.50;48.10;;;;;;5057238;28;20456;-89
2020/12/06 01:59:16;;;;;;;34.07;20.03;;;11.80;47.70;;;;;;5056486;28;20460;-88
2020/12/06 02:01:54;;;;;;;41.27;24.10;;;11.80;46.80;;;;;;5056254;28;20452;-89
2020/12/06 02:04:20;;;;;;;31.37;18.53;;;11.70;46.40;;;;;;5056246;28;20464;-88
2020/12/06 02:06:47;;;;;;;30.03;18.80;;;11.70;46.10;;;;;;5057257;28;20453;-88
2020/12/06 02:09:15;;;;;;;31.33;19.30;;;11.90;47.00;;;;;;5056267;28;20433;-88
2020/12/06 02:11:41;;;;;;;38.73;21.87;;;12.10;45.80;;;;;;5055847;28;20453;-89
2020/12/06 02:14:10;;;;;;;34.90;22.00;;;12.20;46.00;;;;;;5055730;28;20447;-89
2020/12/06 02:16:36;;;;;;;33.07;20.23;;;11.90;44.90;;;;;;5056462;28;20496;-89
2020/12/06 02:19:05;;;;;;;35.00;21.10;;;11.80;46.40;;;;;;5057051;28;20469;-89
2020/12/06 02:21:33;;;;;;;29.30;18.23;;;11.90;46.40;;;;;;5057473;28;20452;-89
2020/12/06 02:24:00;;;;;;;44.20;23.13;;;11.80;45.80;;;;;;5056715;28;20472;-88
2020/12/06 02:26:27;;;;;;;32.23;19.03;;;11.90;46.00;;;;;;5064185;28;20444;-89
2020/12/06 02:28:54;;;;;;;29.37;17.83;;;11.80;46.30;;;;;;5071923;28;20457;-88
2020/12/06 02:31:21;;;;;;;37.27;20.97;;;11.80;46.40;;;;;;5069492;28;20498;-89
2020/12/06 02:33:48;;;;;;;28.73;16.77;;;11.70;46.50;;;;;;5072262;28;20436;-88
2020/12/06 02:36:15;;;;;;;27.10;17.80;;;11.80;46.20;;;;;;5073887;28;20453;-88
2020/12/06 02:38:48;;;;;;;35.90;20.57;;;11.60;46.50;;;;;;5073213;28;20443;-89
2020/12/06 02:41:15;;;;;;;39.57;22.03;;;11.80;45.60;;;;;;5062129;28;20486;-88
2020/12/06 02:43:41;;;;;;;32.57;18.40;;;11.30;44.20;;;;;;5058628;28;20863;-89
2020/12/06 02:46:08;;;;;;;27.27;17.03;;;10.90;45.80;;;;;;5058206;28;20505;-89
2020/12/06 02:48:34;;;;;;;27.70;17.50;;;11.20;47.50;;;;;;5056980;28;20447;-88
2020/12/06 02:51:02;;;;;;;27.97;16.90;;;11.50;46.50;;;;;;5056876;28;20514;-89
2020/12/06 02:53:29;;;;;;;35.37;18.40;;;11.60;46.80;;;;;;5058250;28;20441;-88
2020/12/06 02:55:56;;;;;;;28.30;17.57;;;11.80;46.20;;;;;;5056226;28;20445;-88
2020/12/06 02:58:25;;;;;;;20.53;12.60;;;11.90;45.50;;;;;;5056636;28;20448;-89
2020/12/06 03:00:51;;;;;;;24.10;14.63;;;11.80;46.70;;;;;;5063691;28;20900;-89
2020/12/06 03:03:18;;;;;;;26.40;17.37;;;12.00;46.50;;;;;;5057281;28;20896;-89
2020/12/06 03:05:44;;;;;;;27.40;16.57;;;12.20;45.40;;;;;;5057475;28;20472;-89
2020/12/06 03:08:11;;;;;;;32.70;20.40;;;12.20;44.40;;;;;;5057311;28;20444;-89
2020/12/06 03:10:38;;;;;;;36.90;20.60;;;11.20;43.90;;;;;;5057062;28;20586;-88
2020/12/06 03:13:05;;;;;;;37.33;20.93;;;10.10;47.30;;;;;;5057926;28;20466;-89
2020/12/06 03:15:32;;;;;;;40.00;20.00;;;10.00;46.80;;;;;;5057301;28;20494;-88
2020/12/06 03:17:58;;;;;;;39.93;21.30;;;9.90;48.00;;;;;;5057624;28;20507;-88
2020/12/06 03:20:25;;;;;;;40.47;20.93;;;10.20;48.10;;;;;;5056704;28;20984;-88
2020/12/06 03:22:51;;;;;;;35.33;18.63;;;10.50;46.60;;;;;;5056952;28;20476;-88
2020/12/06 03:25:18;;;;;;;34.63;19.97;;;11.10;47.80;;;;;;5057710;28;20851;-88
2020/12/06 03:27:44;;;;;;;36.43;20.77;;;11.40;44.90;;;;;;5054917;28;20940;-88
2020/12/06 03:30:12;;;;;;;28.27;18.00;;;11.10;44.20;;;;;;5055795;28;20459;-88
2020/12/06 03:32:38;;;;;;;33.27;20.30;;;10.80;46.40;;;;;;5055103;28;20439;-88
2020/12/06 03:35:05;;;;;;;36.33;19.63;;;10.80;45.40;;;;;;5055403;28;20457;-88
2020/12/06 03:37:31;;;;;;;26.13;15.83;;;10.50;46.30;;;;;;5055077;28;20452;-88
2020/12/06 03:39:58;;;;;;;25.97;15.13;;;10.60;48.30;;;;;;5055471;28;20517;-88
2020/12/06 03:42:24;;;;;;;30.00;18.73;;;11.00;47.60;;;;;;5054552;28;20518;-88
2020/12/06 03:44:51;;;;;;;22.87;14.67;;;11.30;46.80;;;;;;5054413;28;20448;-88
2020/12/06 03:47:19;;;;;;;28.13;16.00;;;11.50;46.70;;;;;;5055611;28;20440;-88
2020/12/06 03:49:45;;;;;;;30.13;15.80;;;11.70;46.40;;;;;;5054503;28;20941;-88
2020/12/06 03:52:12;;;;;;;24.83;14.40;;;11.70;46.00;;;;;;5065868;28;20457;-88
2020/12/06 03:54:38;;;;;;;33.00;17.97;;;11.70;45.60;;;;;;5069056;28;20433;-88
2020/12/06 03:57:05;;;;;;;33.10;18.07;;;11.80;44.90;;;;;;5069129;28;20441;-88
2020/12/06 03:59:31;;;;;;;28.50;16.00;;;11.70;45.90;;;;;;5069973;28;20434;-88
2020/12/06 04:01:58;;;;;;;25.80;15.83;;;11.70;45.00;;;;;;5066051;28;20452;-88
2020/12/06 04:04:25;;;;;;;31.77;18.10;;;11.60;45.90;;;;;;5079024;28;20654;-87
2020/12/06 04:06:52;;;;;;;25.67;15.60;;;11.60;45.40;;;;;;5079578;28;20435;-87
2020/12/06 04:09:18;;;;;;;35.53;19.73;;;11.60;45.60;;;;;;5077547;28;20518;-87
2020/12/06 04:11:45;;;;;;;31.87;18.80;;;11.40;44.10;;;;;;5064873;28;20473;-88
2020/12/06 04:14:11;;;;;;;32.50;19.00;;;10.90;46.10;;;;;;5056946;28;20448;-88
2020/12/06 04:16:38;;;;;;;28.37;15.90;;;11.10;44.60;;;;;;5056801;28;20444;-88
2020/12/06 04:19:04;;;;;;;30.77;17.90;;;10.60;45.70;;;;;;5056933;28;20436;-88
2020/12/06 04:21:32;;;;;;;35.27;19.97;;;10.50;45.90;;;;;;5056349;28;20472;-88
2020/12/06 04:23:58;;;;;;;29.00;17.07;;;10.50;46.70;;;;;;5056407;28;20483;-88
2020/12/06 04:26:25;;;;;;;25.27;15.57;;;10.60;45.90;;;;;;5056144;28;20501;-88
2020/12/06 04:28:51;;;;;;;30.43;18.20;;;11.00;46.80;;;;;;5056403;28;20432;-88
2020/12/06 04:31:18;;;;;;;38.33;18.50;;;11.30;46.40;;;;;;5055881;28;20965;-88
2020/12/06 04:33:44;;;;;;;22.60;13.90;;;11.30;43.80;;;;;;5055960;28;20494;-88
2020/12/06 04:36:11;;;;;;;31.03;18.10;;;11.30;47.00;;;;;;5056164;28;20437;-88
2020/12/06 04:38:38;;;;;;;31.47;19.57;;;11.40;43.90;;;;;;5056076;28;20486;-88
2020/12/06 04:41:05;;;;;;;30.83;18.17;;;10.30;44.70;;;;;;5056061;28;20526;-88
2020/12/06 04:43:32;;;;;;;30.57;18.13;;;9.40;49.50;;;;;;5055792;28;20467;-88
2020/12/06 04:46:00;;;;;;;30.30;17.90;;;9.20;49.80;;;;;;5056299;28;20457;-88
2020/12/06 04:48:35;;;;;;;34.33;19.13;;;9.40;50.00;;;;;;5055586;28;20455;-88
2020/12/06 04:51:05;;;;;;;27.63;17.33;;;9.60;50.20;;;;;;5055604;28;20969;-88
2020/12/06 04:53:44;;;;;;;35.20;19.30;;;10.20;49.00;;;;;;5056116;28;20831;-88
2020/12/06 04:56:12;;;;;;;36.47;21.00;;;9.70;48.00;;;;;;5056226;28;20409;-88
2020/12/06 04:58:40;;;;;;;28.77;17.40;;;9.40;49.30;;;;;;5055540;28;20437;-88
2020/12/06 05:01:07;;;;;;;33.97;20.17;;;10.20;49.80;;;;;;5055476;28;20487;-88
2020/12/06 05:03:35;;;;;;;24.30;14.80;;;10.60;47.30;;;;;;5055113;28;20472;-88
2020/12/06 05:06:02;;;;;;;33.77;18.93;;;10.40;48.30;;;;;;5055733;28;20520;-88
2020/12/06 05:08:34;;;;;;;40.07;20.87;;;9.60;48.40;;;;;;5055388;28;20444;-88
2020/12/06 05:11:01;;;;;;;26.43;15.70;;;9.10;50.30;;;;;;5055655;28;20468;-88
2020/12/06 05:13:28;;;;;;;27.40;16.57;;;9.40;51.20;;;;;;5055403;28;20444;-88
2020/12/06 05:15:56;;;;;;;35.67;20.27;;;10.20;50.40;;;;;;5055342;28;20498;-88
2020/12/06 05:18:23;;;;;;;43.33;21.00;;;10.30;47.70;;;;;;5055292;28;20448;-88
2020/12/06 05:20:51;;;;;;;40.83;19.80;;;9.50;48.40;;;;;;5055174;28;20479;-88
2020/12/06 05:23:17;;;;;;;35.10;17.23;;;9.00;49.70;;;;;;5055748;28;20525;-88
2020/12/06 05:25:45;;;;;;;37.60;20.73;;;9.30;52.10;;;;;;5055155;28;20440;-88
2020/12/06 05:28:12;;;;;;;44.07;21.90;;;10.00;47.90;;;;;;5055289;28;20444;-88
2020/12/06 05:30:40;;;;;;;32.97;18.97;;;9.60;48.10;;;;;;5055258;28;20478;-88
2020/12/06 05:33:07;;;;;;;38.13;19.60;;;9.60;49.80;;;;;;5054937;28;20523;-88
2020/12/06 05:35:33;;;;;;;41.53;20.70;;;9.70;49.50;;;;;;5054624;28;20432;-88
2020/12/06 05:38:00;;;;;;;38.50;18.57;;;10.10;48.70;;;;;;5065659;28;20436;-88
2020/12/06 05:40:26;;;;;;;44.50;18.77;;;10.90;49.10;;;;;;5078601;28;20453;-88
2020/12/06 05:42:53;;;;;;;34.80;19.83;;;11.30;45.70;;;;;;5078475;28;20460;-88
2020/12/06 05:45:21;;;;;;;34.10;17.80;;;10.90;45.10;;;;;;5077638;28;20429;-88
2020/12/06 05:47:47;;;;;;;41.13;21.20;;;10.60;46.60;;;;;;5078383;28;20461;-88
2020/12/06 05:50:14;;;;;;;40.83;20.23;;;10.00;46.60;;;;;;5077302;28;20476;-88
2020/12/06 05:52:40;;;;;;;35.47;18.67;;;9.70;48.20;;;;;;5078145;28;20444;-87
2020/12/06 05:55:07;;;;;;;39.10;21.27;;;9.50;49.70;;;;;;5057218;28;20798;-87
2020/12/06 05:57:33;;;;;;;34.43;19.23;;;9.60;49.30;;;;;;5054586;28;20493;-88
2020/12/06 06:00:01;;;;;;;44.17;21.70;;;9.80;49.50;;;;;;5054187;28;20514;-88
2020/12/06 06:02:28;;;;;;;36.10;19.40;;;9.20;48.80;;;;;;5054236;28;20444;-88
2020/12/06 06:05:02;;;;;;;36.40;20.93;;;9.50;51.00;;;;;;5054295;28;20479;-88
2020/12/06 06:07:30;;;;;;;30.27;16.57;;;10.10;48.50;;;;;;5053649;28;20874;-88
2020/12/06 06:10:00;;;;;;;29.97;15.40;;;9.80;48.90;;;;;;5054804;28;20521;-88
2020/12/06 06:12:29;;;;;;;37.77;20.50;;;10.20;49.30;;;;;;5053897;28;20920;-88
2020/12/06 06:14:59;;;;;;;30.33;18.40;;;10.80;47.10;;;;;;5053728;28;20448;-88
2020/12/06 06:17:28;;;;;;;32.93;17.67;;;11.10;47.40;;;;;;5054021;28;20443;-88
2020/12/06 06:19:55;;;;;;;34.97;18.80;;;11.30;46.10;;;;;;5053866;28;20440;-88
2020/12/06 06:22:27;;;;;;;32.03;17.43;;;10.90;46.20;;;;;;5054048;28;20449;-88
2020/12/06 06:24:56;;;;;;;35.27;19.47;;;10.70;46.30;;;;;;5053867;28;20540;-88
2020/12/06 06:27:22;;;;;;;36.80;19.80;;;9.80;47.30;;;;;;5052807;28;20876;-88
2020/12/06 06:29:50;;;;;;;38.63;20.17;;;9.30;50.00;;;;;;5053394;28;20513;-88
2020/12/06 06:32:20;;;;;;;36.30;19.40;;;9.30;50.00;;;;;;5070107;28;20432;-88
2020/12/06 06:34:47;;;;;;;36.73;18.80;;;9.40;50.00;;;;;;5069134;28;20910;-88
2020/12/06 06:37:16;;;;;;;33.70;18.93;;;9.30;50.00;;;;;;5053426;28;20531;-88
2020/12/06 06:39:43;;;;;;;33.33;19.30;;;9.10;49.80;;;;;;5053221;28;20448;-88
2020/12/06 06:42:13;;;;;;;37.60;19.93;;;9.00;51.10;;;;;;5053005;28;20449;-88
2020/12/06 06:44:42;;;;;;;35.87;19.27;;;9.40;49.60;;;;;;5052846;28;20555;-88
2020/12/06 06:47:09;;;;;;;31.73;18.40;;;9.60;49.70;;;;;;5053383;28;20502;-88
2020/12/06 06:49:51;;;;;;;32.53;18.40;;;10.10;49.20;;;;;;5053548;28;20999;-88
2020/12/06 06:52:18;;;;;;;34.63;18.20;;;10.40;46.80;;;;;;5053374;28;20972;-88
2020/12/06 06:54:48;;;;;;;30.97;17.93;;;10.70;48.10;;;;;;5053720;28;20494;-88
2020/12/06 06:57:17;;;;;;;32.50;17.97;;;11.00;46.70;;;;;;5053854;28;20503;-88
2020/12/06 06:59:48;;;;;;;26.50;15.27;;;11.00;45.80;;;;;;5053535;28;20483;-88
2020/12/06 07:02:25;;;;;;;39.30;19.90;;;11.10;46.20;;;;;;5054037;28;20429;-88
2020/12/06 07:04:53;;;;;;;36.93;19.97;;;10.90;45.70;;;;;;5053724;28;20460;-88
2020/12/06 07:07:43;;;;;;;36.37;19.40;;;10.40;45.30;;;;;;5060405;28;20459;-88
2020/12/06 07:10:11;;;;;;;33.70;19.00;;;9.40;48.50;;;;;;5056286;28;20974;-87
2020/12/06 07:12:42;;;;;;;37.33;20.93;;;9.20;49.80;;;;;;5073368;28;20420;-87
2020/12/06 07:15:12;;;;;;;37.00;20.63;;;9.20;48.50;;;;;;5069160;28;20483;-87
2020/12/06 07:17:39;;;;;;;40.57;21.37;;;8.60;49.30;;;;;;5054395;28;20482;-87
2020/12/06 07:20:07;;;;;;;41.30;21.50;;;8.10;50.90;;;;;;5054529;28;20464;-87
2020/12/06 07:22:35;;;;;;;43.43;21.77;;;8.00;51.30;;;;;;5054087;28;20436;-88
2020/12/06 07:25:02;;;;;;;70.63;35.80;;;8.00;51.50;;;;;;5053920;28;21009;-88
2020/12/06 07:27:28;;;;;;;42.40;22.33;;;8.60;52.80;;;;;;5054631;28;20538;-88
2020/12/06 07:29:55;;;;;;;51.80;25.00;;;8.90;50.20;;;;;;5053799;28;20448;-88
2020/12/06 07:32:22;;;;;;;50.33;25.90;;;9.30;49.90;;;;;;5055361;28;20440;-88
2020/12/06 07:34:49;;;;;;;44.87;24.40;;;9.30;49.90;;;;;;5054690;28;20506;-88
2020/12/06 07:37:16;;;;;;;46.77;23.70;;;9.40;49.50;;;;;;5054847;28;20451;-87
2020/12/06 07:39:44;;;;;;;48.93;25.70;;;9.20;49.10;;;;;;5058424;28;20510;-87
2020/12/06 07:42:11;;;;;;;56.83;28.17;;;9.40;50.10;;;;;;5058226;28;20452;-87
2020/12/06 07:44:45;;;;;;;57.37;26.30;;;9.60;50.20;;;;;;5057820;28;20989;-88
2020/12/06 07:47:15;;;;;;;57.60;27.93;;;9.70;50.30;;;;;;5057874;28;20547;-88
2020/12/06 07:49:43;;;;;;;44.93;22.67;;;9.70;49.50;;;;;;5058070;28;20433;-88
2020/12/06 07:52:14;;;;;;;44.80;25.53;;;9.70;50.30;;;;;;5060996;28;20478;-87
2020/12/06 07:54:51;;;;;;;32.40;19.60;;;9.80;48.40;;;;;;5073069;28;20443;-87
2020/12/06 07:57:22;;;;;;;43.23;22.13;;;9.70;50.30;;;;;;5060171;28;20779;-88
2020/12/06 07:59:50;;;;;;;38.40;21.00;;;9.40;50.00;;;;;;5060485;28;20464;-88
2020/12/06 08:02:17;;;;;;;40.77;21.67;;;8.90;51.10;;;;;;5061461;28;20448;-88
2020/12/06 08:04:44;;;;;;;45.17;22.27;;;8.90;51.30;;;;;;5064498;28;20835;-88
2020/12/06 08:07:16;;;;;;;41.10;22.40;;;8.80;50.60;;;;;;5059970;28;20440;-88
2020/12/06 08:09:46;;;;;;;48.00;20.87;;;8.80;50.70;;;;;;5059230;28;20463;-88
2020/12/06 08:12:16;;;;;;;48.53;23.17;;;8.90;51.20;;;;;;5059815;28;20463;-88
2020/12/06 08:14:43;;;;;;;52.47;23.73;;;9.10;51.20;;;;;;5060770;28;20496;-88
2020/12/06 08:17:10;;;;;;;45.67;23.37;;;9.00;50.70;;;;;;5060078;28;20470;-88
2020/12/06 08:19:38;;;;;;;52.13;26.53;;;9.30;50.30;;;;;;5061495;28;20564;-88
2020/12/06 08:22:06;;;;;;;48.60;25.93;;;9.70;50.30;;;;;;5062483;28;20504;-88
2020/12/06 08:24:33;;;;;;;47.20;23.20;;;9.80;49.50;;;;;;5062399;28;20476;-88
2020/12/06 08:27:01;;;;;;;48.57;25.70;;;9.30;50.00;;;;;;5062744;28;20513;-88
2020/12/06 08:29:38;;;;;;;43.80;23.17;;;9.10;49.80;;;;;;5061203;28;20439;-88
2020/12/06 08:32:06;;;;;;;52.07;24.40;;;8.70;50.70;;;;;;5061568;28;20467;-88
2020/12/06 08:34:33;;;;;;;45.60;21.73;;;8.50;51.70;;;;;;5061550;28;20445;-87
2020/12/06 08:37:16;;;;;;;40.00;21.87;;;8.50;51.90;;;;;;5062804;28;20449;-88
2020/12/06 08:39:43;;;;;;;44.67;23.17;;;8.70;52.60;;;;;;5062048;28;20440;-88
2020/12/06 08:42:18;;;;;;;45.13;24.30;;;8.20;53.50;;;;;;5071687;28;20454;-88
2020/12/06 08:44:56;;;;;;;44.53;22.37;;;7.90;53.70;;;;;;5080051;28;20486;-88
2020/12/06 08:47:24;;;;;;;46.70;22.90;;;8.40;53.10;;;;;;5080011;28;20440;-87
2020/12/06 08:50:06;;;;;;;56.67;25.33;;;8.80;52.50;;;;;;5065916;28;20437;-88
2020/12/06 08:52:33;;;;;;;52.60;26.10;;;9.10;50.90;;;;;;5078483;28;20504;-87
2020/12/06 08:55:00;;;;;;;39.23;21.00;;;8.80;51.30;;;;;;5079789;28;20451;-87
2020/12/06 08:57:27;;;;;;;46.13;24.63;;;8.90;52.50;;;;;;5079528;28;20436;-87
2020/12/06 08:59:54;;;;;;;47.73;24.50;;;9.50;52.30;;;;;;5078962;28;20425;-87
2020/12/06 09:02:23;;;;;;;44.20;23.40;;;10.20;49.70;;;;;;5056170;28;20481;-88
2020/12/06 09:04:50;;;;;;;45.07;22.60;;;10.60;47.60;;;;;;5056410;28;20525;-88
2020/12/06 09:07:17;;;;;;;41.13;21.43;;;10.50;48.80;;;;;;5057589;28;20811;-88
2020/12/06 09:09:43;;;;;;;42.13;21.13;;;10.90;46.70;;;;;;5057300;28;20857;-88
2020/12/06 09:12:10;;;;;;;41.93;21.27;;;9.50;49.70;;;;;;5056874;28;20440;-88
2020/12/06 09:14:37;;;;;;;34.83;19.23;;;9.20;51.40;;;;;;5056923;28;20433;-88
2020/12/06 09:17:04;;;;;;;37.87;20.13;;;9.30;52.70;;;;;;5057267;28;20456;-88
2020/12/06 09:19:31;;;;;;;40.83;20.80;;;9.10;52.10;;;;;;5057187;28;20448;-88
2020/12/06 09:21:58;;;;;;;39.23;20.90;;;8.80;52.10;;;;;;5056507;28;20472;-88
2020/12/06 09:24:24;;;;;;;41.50;21.40;;;8.80;52.90;;;;;;5056458;28;20480;-88
2020/12/06 09:26:51;;;;;;;36.90;19.30;;;8.60;53.00;;;;;;5056962;28;20810;-88
2020/12/06 09:29:17;;;;;;;39.87;21.07;;;9.00;53.10;;;;;;5057147;28;20506;-88
2020/12/06 09:31:45;;;;;;;41.50;21.23;;;9.00;51.80;;;;;;5057033;28;20464;-88
2020/12/06 09:34:11;;;;;;;36.03;19.60;;;8.50;52.60;;;;;;5056218;28;20495;-88
2020/12/06 09:36:44;;;;;;;45.20;22.30;;;8.60;54.10;;;;;;5056024;28;20441;-88
2020/12/06 09:39:11;;;;;;;39.60;19.80;;;8.90;53.30;;;;;;5055620;28;20793;-88
2020/12/06 09:41:38;;;;;;;39.00;21.20;;;9.70;52.30;;;;;;5056032;28;20456;-88
2020/12/06 09:44:07;;;;;;;38.50;21.27;;;9.80;50.40;;;;;;5055609;28;20476;-89
2020/12/06 09:46:34;;;;;;;40.00;19.80;;;10.30;49.80;;;;;;5055806;28;20453;-88
2020/12/06 09:49:02;;;;;;;41.83;19.23;;;10.70;48.60;;;;;;5055659;28;20445;-88
2020/12/06 09:51:29;;;;;;;35.50;18.87;;;11.00;48.30;;;;;;5054384;28;20487;-88
2020/12/06 09:53:55;;;;;;;31.63;17.90;;;11.40;47.90;;;;;;5055631;28;20441;-88
2020/12/06 09:56:28;;;;;;;26.50;15.07;;;11.20;46.60;;;;;;5054907;28;20816;-88
2020/12/06 09:58:55;;;;;;;24.67;15.80;;;11.20;46.80;;;;;;5054679;28;20441;-88
2020/12/06 10:01:24;;;;;;;22.23;13.53;;;10.80;48.30;;;;;;5054022;28;20493;-88
2020/12/06 10:03:50;;;;;;;19.60;13.10;;;11.20;48.40;;;;;;5055236;28;20480;-88
2020/12/06 10:06:23;;;;;;;24.90;12.80;;;10.70;46.90;;;;;;5055173;28;20522;-88
2020/12/06 10:08:50;;;;;;;19.30;11.97;;;9.90;50.40;;;;;;5055074;28;20432;-88
2020/12/06 10:11:17;;;;;;;20.80;13.47;;;9.80;51.70;;;;;;5054917;28;20467;-88
2020/12/06 10:13:43;;;;;;;21.67;12.80;;;9.70;50.30;;;;;;5055199;28;20525;-88
2020/12/06 10:16:10;;;;;;;20.90;13.53;;;9.10;51.70;;;;;;5054873;28;20467;-88
2020/12/06 10:18:37;;;;;;;17.37;11.80;;;9.50;51.00;;;;;;5054265;28;21003;-88
2020/12/06 10:21:05;;;;;;;17.53;11.47;;;9.70;50.90;;;;;;5054466;28;20461;-88
2020/12/06 10:23:33;;;;;;;18.23;11.00;;;9.70;51.20;;;;;;5054975;28;20482;-88
2020/12/06 10:25:59;;;;;;;16.10;10.87;;;9.90;50.50;;;;;;5054746;28;20448;-88
2020/12/06 10:28:26;;;;;;;19.73;11.87;;;10.00;49.60;;;;;;5054554;28;20448;-87
2020/12/06 10:30:52;;;;;;;19.00;11.83;;;10.30;48.10;;;;;;5054885;28;20465;-88
2020/12/06 10:33:19;;;;;;;12.93;9.33;;;10.90;49.50;;;;;;5054650;28;20879;-88
2020/12/06 10:35:46;;;;;;;15.47;10.93;;;11.30;48.60;;;;;;5054376;28;20455;-87
2020/12/06 10:38:12;;;;;;;16.07;9.70;;;11.10;46.70;;;;;;5054391;28;20436;-88
2020/12/06 10:40:40;;;;;;;15.20;10.37;;;10.60;47.80;;;;;;5054019;28;20518;-87
2020/12/06 10:43:08;;;;;;;17.37;11.20;;;11.00;48.60;;;;;;5054850;28;20498;-87
2020/12/06 10:45:35;;;;;;;14.47;9.77;;;10.70;47.00;;;;;;5054116;28;20480;-88
2020/12/06 10:48:02;;;;;;;14.50;10.80;;;10.30;48.90;;;;;;5054597;28;20433;-88
2020/12/06 10:50:30;;;;;;;15.07;9.77;;;9.50;50.10;;;;;;5054142;28;21011;-87
2020/12/06 10:52:56;;;;;;;13.60;8.93;;;9.20;51.30;;;;;;5054028;28;20899;-87
2020/12/06 10:55:25;;;;;;;15.63;9.70;;;8.70;52.80;;;;;;5055035;28;20444;-88
2020/12/06 10:57:53;;;;;;;13.33;9.40;;;9.10;53.70;;;;;;5055388;28;20514;-88
2020/12/06 11:00:20;;;;;;;14.53;9.33;;;9.10;52.50;;;;;;5054371;28;20837;-88
2020/12/06 11:02:49;;;;;;;14.40;9.33;;;9.10;51.70;;;;;;5055399;28;20451;-88
2020/12/06 11:05:16;;;;;;;16.07;8.93;;;9.00;52.50;;;;;;5054998;28;20530;-88
2020/12/06 11:07:42;;;;;;;12.13;9.53;;;9.00;54.00;;;;;;5054518;28;20774;-88
2020/12/06 11:10:09;;;;;;;17.00;9.20;;;9.60;51.20;;;;;;5054624;28;20460;-88
2020/12/06 11:12:35;;;;;;;13.23;7.83;;;9.60;50.20;;;;;;5056920;28;20455;-88
2020/12/06 11:15:03;;;;;;;12.77;8.73;;;10.00;49.60;;;;;;5061898;28;20455;-88
2020/12/06 11:17:30;;;;;;;11.67;8.53;;;10.00;49.80;;;;;;5073380;28;20564;-88
2020/12/06 11:19:58;;;;;;;12.37;8.73;;;9.10;50.80;;;;;;5083347;28;20498;-88
2020/12/06 11:22:26;;;;;;;11.30;8.00;;;8.90;52.80;;;;;;5079983;28;20452;-88
2020/12/06 11:24:53;;;;;;;9.03;7.03;;;9.50;52.00;;;;;;5074608;28;20482;-88
2020/12/06 11:27:20;;;;;;;9.90;6.63;;;9.60;51.80;;;;;;5069110;28;20494;-88
2020/12/06 11:29:47;;;;;;;9.50;6.20;;;9.50;51.10;;;;;;5070415;28;20447;-88
2020/12/06 11:32:14;;;;;;;8.80;6.70;;;9.30;51.20;;;;;;5070196;28;20974;-88
2020/12/06 11:34:41;;;;;;;11.23;6.50;;;9.60;50.80;;;;;;5079617;28;20508;-88
2020/12/06 11:37:08;;;;;;;7.97;5.97;;;9.70;51.10;;;;;;5074819;28;20478;-89
2020/12/06 11:39:35;;;;;;;8.30;6.33;;;9.80;51.20;;;;;;5063375;28;20486;-88
2020/12/06 11:42:01;;;;;;;8.33;6.60;;;9.50;50.20;;;;;;5062059;28;20449;-88
2020/12/06 11:44:28;;;;;;;7.77;5.77;;;10.10;49.60;;;;;;5063069;28;20483;-88
2020/12/06 11:46:55;;;;;;;6.50;5.47;;;9.60;50.20;;;;;;5063340;28;20451;-88
2020/12/06 11:49:22;;;;;;;7.80;6.30;;;9.30;50.80;;;;;;5064141;28;20434;-88
2020/12/06 11:51:49;;;;;;;6.10;5.10;;;9.10;51.40;;;;;;5095183;22;20494;-85
2020/12/06 11:54:16;;;;;;;16.83;7.90;;;9.20;52.70;;;;;;5087865;28;20442;-87
2020/12/06 11:56:48;;;;;;;8.30;5.93;;;9.70;51.20;;;;;;5086892;28;20454;-87
2020/12/06 11:59:15;;;;;;;6.67;5.20;;;10.10;48.40;;;;;;5089208;28;20770;-87
2020/12/06 12:01:41;;;;;;;6.73;5.60;;;10.00;49.60;;;;;;5086317;28;20451;-87
2020/12/06 12:04:08;;;;;;;7.33;4.23;;;9.80;49.00;;;;;;5089043;28;21042;-88
2020/12/06 12:06:35;;;;;;;8.17;5.70;;;10.40;49.90;;;;;;5087585;28;20506;-87
2020/12/06 12:09:02;;;;;;;20.77;9.33;;;10.70;47.60;;;;;;5087004;28;20446;-87
2020/12/06 12:11:29;;;;;;;8.40;5.53;;;11.00;47.60;;;;;;5088125;28;20467;-88
2020/12/06 12:13:56;;;;;;;6.03;4.83;;;10.80;46.60;;;;;;5086440;28;20939;-87
2020/12/06 12:16:23;;;;;;;6.67;5.40;;;10.50;47.10;;;;;;5086408;28;20446;-87
2020/12/06 12:18:49;;;;;;;11.73;7.33;;;10.00;47.70;;;;;;5087228;28;20542;-87
2020/12/06 12:21:16;;;;;;;14.63;8.90;;;10.10;48.70;;;;;;5088592;28;20471;-87
2020/12/06 12:23:43;;;;;;;20.63;10.87;;;10.00;48.80;;;;;;5090085;28;20439;-86
2020/12/06 12:26:10;;;;;;;22.50;11.33;;;10.30;47.70;;;;;;5083097;28;20452;-87
2020/12/06 12:28:36;;;;;;;14.60;8.57;;;10.70;47.40;;;;;;5084162;28;20445;-87
2020/12/06 12:31:03;;;;;;;8.63;6.47;;;10.70;47.40;;;;;;5085039;28;20486;-87
2020/12/06 12:33:30;;;;;;;8.87;6.33;;;11.50;46.90;;;;;;5085650;28;20451;-87
2020/12/06 12:35:56;;;;;;;7.33;5.80;;;11.70;45.30;;;;;;5088816;28;20439;-88